Marousi, Greece

12:50 PM EEST on September 02, 2014 (GMT +0300)
Maroussi | Change Station
CLOSE
Current Station
Personal Weather Station
Location: Athens, ATTICA
Elevation: 797 ft
Nearby Weather Stations
Active Advisory: Thunderstorms

Elev 797 ft 38.04 °N, 23.83 °E | Updated 83 days ago

Clear
Clear
85 °F
Feels Like 87 °F
N
12
Wind Variable Wind from SSE
Gusts mph

Today
High -- | Low -- °F
--% Chance of Precip.
Yesterday
High -- | Low -- °F
Precip. -- in
6:55 AM 7:53 PM
Waxing Crescent, 50% visible
Pressure 29.68 in
Visibility 6.2 miles
Clouds Scattered Clouds 2500 ft
Mostly Cloudy 7000 ft
Heat Index 87 °F
Dew Point 66 °F
Humidity 54%
Rainfall 0.00 in
Snow Depth Not available.
UV 5 out of 12
Pollen Not available.
Air Quality Not available.
Flu Activity Not available.
METAR LGEL 020920Z 17008KT 9999 SCT025 BKN070 28/19 Q1005 NOSIG

More Conditions Fewer Conditions

Pressure 29.68 in
Visibility 6.2 miles
Clouds Scattered Clouds 2500 ft
Mostly Cloudy 7000 ft
Heat Index 87 °F
Dew Point 66 °F
Humidity 54%
Rainfall 0.00 in
Snow Depth Not available.
UV 5 out of 12
Pollen Not available.
Air Quality Not available.
Flu Activity Not available.
METAR LGEL 020920Z 17008KT 9999 SCT025 BKN070 28/19 Q1005 NOSIG

More Conditions Fewer Conditions

10-Day Weather Forecast

Almanac

Astronomy

Sep. 02, 2014 Rise Set
Actual Time 6:55 AM EEST 7:53 PM EEST
Civil Twilight 6:28 AM EEST 8:20 PM EEST
Nautical Twilight 5:56 AM EEST 8:51 PM EEST
Astronomical Twilight 5:22 AM EEST 9:24 PM EEST
Moon 2:14 PM EEST No Moon Set
Length of Visible Light 13h 51m
Length of Day
12h 58m
Tomorrow will be 2m 23s shorter.
Waxing Crescent, 50% of the Moon is Illuminated
Today
Waxing Crescent
Sep 2
First Quarter
Sep 8
Full
Sep 15
Last Quarter
Sep 24
New

Yesterday's Extremes

Country Highs Country Lows

Community

WunderPhotos

Upload Photos

1,749,587 photos uploaded!

WunderBlogs® & News

Nearby

Snow Depth

Not available.

Earthquake Activity

City Distance Mag. Time & Date
No recent earthquake activity has been reported nearby.
Minimum magnitude displayed is 2.5.

Coastal Water Temperatures

Place Temperature
No Stations Reporting

Nearby Weather Stations